Time;durP1;ratioP1;P1;durP2;ratioP2;P2;SDS_P1;SDS_P2;PMS_P1;PMS_P2;Temp;Humidity;BMP_temperature;BMP_pressure;BME280_temperature;BME280_humidity;BME280_pressure;Samples;Min_cycle;Max_cycle;Signal;HPM_P1;HPM_P2
2021/01/20 00:01:28;;;;;;;1.17;0.82;;;3.60;99.90;;;;;;8431803;28;20024;-67
2021/01/20 00:05:28;;;;;;;1.85;0.90;;;3.60;99.90;;;;;;8431752;28;20085;-68
2021/01/20 00:09:29;;;;;;;1.80;0.77;;;3.60;99.90;;;;;;8431433;28;20028;-68
2021/01/20 00:13:29;;;;;;;1.73;0.82;;;3.60;99.90;;;;;;8431310;28;20509;-67
2021/01/20 00:17:30;;;;;;;1.08;0.68;;;3.60;99.90;;;;;;8431310;28;20470;-68
2021/01/20 00:21:30;;;;;;;1.00;0.70;;;3.60;99.90;;;;;;8431097;28;20024;-68
2021/01/20 00:25:31;;;;;;;2.10;1.08;;;3.60;99.90;;;;;;8430959;28;20024;-67
2021/01/20 00:29:32;;;;;;;1.98;1.00;;;3.40;99.90;;;;;;8430868;28;20429;-68
2021/01/20 00:33:33;;;;;;;1.60;0.90;;;3.30;99.90;;;;;;8429534;28;20016;-68
2021/01/20 00:37:34;;;;;;;2.58;1.00;;;3.00;99.90;;;;;;8430784;28;20039;-68
2021/01/20 00:41:34;;;;;;;1.52;0.82;;;2.90;99.90;;;;;;8430124;28;20086;-67
2021/01/20 00:45:35;;;;;;;1.45;0.90;;;3.00;99.90;;;;;;8429885;28;20063;-68
2021/01/20 00:49:35;;;;;;;0.93;0.80;;;2.90;99.90;;;;;;8429036;28;20123;-67
2021/01/20 00:53:37;;;;;;;1.02;0.70;;;3.00;99.90;;;;;;8430190;28;20016;-67
2021/01/20 00:57:38;;;;;;;1.58;0.80;;;3.00;99.90;;;;;;8430107;28;20021;-67
2021/01/20 01:01:38;;;;;;;0.80;0.60;;;3.10;99.90;;;;;;8428612;28;20034;-68
2021/01/20 01:05:39;;;;;;;1.17;0.73;;;3.10;99.90;;;;;;8428538;28;20759;-68
2021/01/20 01:09:39;;;;;;;0.30;0.30;;;3.10;99.90;;;;;;8429405;28;20105;-67
2021/01/20 01:13:40;;;;;;;1.23;0.80;;;3.00;99.90;;;;;;8429605;28;20094;-68
2021/01/20 01:17:40;;;;;;;1.83;0.90;;;3.10;99.90;;;;;;8429374;28;20478;-68
2021/01/20 01:21:42;;;;;;;0.80;0.50;;;2.90;99.90;;;;;;8427895;28;20145;-68
2021/01/20 01:25:43;;;;;;;0.93;0.70;;;3.00;99.90;;;;;;8429120;28;20474;-68
2021/01/20 01:29:43;;;;;;;0.98;0.60;;;3.10;99.90;;;;;;8428683;28;20032;-66
2021/01/20 01:33:44;;;;;;;1.10;0.73;;;3.10;99.90;;;;;;8427602;28;20026;-68
2021/01/20 01:37:44;;;;;;;1.52;0.73;;;3.10;99.90;;;;;;8428990;28;20039;-67
2021/01/20 01:41:45;;;;;;;0.57;0.50;;;3.10;99.90;;;;;;8427073;28;20021;-67
2021/01/20 01:45:46;;;;;;;1.65;0.70;;;3.20;99.90;;;;;;8428260;28;20104;-68
2021/01/20 01:49:47;;;;;;;1.50;1.02;;;3.20;99.90;;;;;;8426975;28;20402;-68
2021/01/20 01:53:50;;;;;;;2.13;0.77;;;3.10;99.90;;;;;;8428320;28;20113;-68
2021/01/20 01:57:50;;;;;;;1.75;0.65;;;3.20;99.90;;;;;;8424961;28;20044;-67
2021/01/20 02:01:52;;;;;;;2.45;0.60;;;3.20;99.90;;;;;;8411838;28;20039;-68
2021/01/20 02:05:52;;;;;;;1.70;0.75;;;3.20;99.90;;;;;;8425719;28;20091;-67
2021/01/20 02:09:54;;;;;;;1.58;0.80;;;3.20;99.90;;;;;;8427547;28;20485;-68
2021/01/20 02:14:00;;;;;;;1.13;0.80;;;3.00;99.90;;;;;;8427727;28;20116;-67
2021/01/20 02:18:06;;;;;;;1.33;0.60;;;3.00;99.90;;;;;;8426263;28;20111;-67
2021/01/20 02:22:27;;;;;;;1.73;0.82;;;3.00;99.90;;;;;;8427107;28;20116;-68
2021/01/20 02:27:08;;;;;;;1.15;0.68;;;3.00;99.90;;;;;;8427355;28;20020;-68
2021/01/20 02:31:09;;;;;;;0.88;0.70;;;2.90;99.90;;;;;;8389032;28;20040;-67
2021/01/20 02:35:11;;;;;;;1.05;0.68;;;2.70;99.90;;;;;;8426931;28;20089;-67
2021/01/20 02:39:12;;;;;;;0.98;0.75;;;2.80;99.90;;;;;;8426836;28;20028;-68
2021/01/20 02:43:13;;;;;;;2.00;0.80;;;2.90;99.90;;;;;;8426544;28;20031;-67
2021/01/20 02:47:14;;;;;;;1.15;0.60;;;3.00;99.90;;;;;;8425154;28;20034;-67
2021/01/20 02:51:24;;;;;;;1.38;0.55;;;3.10;99.90;;;;;;8426309;28;20064;-68
2021/01/20 02:55:26;;;;;;;;;;;3.10;99.90;;;;;;8426998;28;20016;-68
2021/01/20 02:59:28;;;;;;;1.23;0.80;;;3.00;99.90;;;;;;8426495;28;19948;-68
2021/01/20 03:03:33;;;;;;;1.35;0.80;;;2.80;99.90;;;;;;8426333;28;20118;-68
2021/01/20 03:07:34;;;;;;;1.35;0.60;;;2.80;99.90;;;;;;8425679;28;20020;-68
2021/01/20 03:11:52;;;;;;;0.82;0.60;;;2.60;99.90;;;;;;8406065;28;20032;-68
2021/01/20 03:15:53;;;;;;;0.95;0.68;;;2.30;99.90;;;;;;8392611;28;20013;-68
2021/01/20 03:19:53;;;;;;;1.38;0.80;;;1.90;99.90;;;;;;8392413;28;20608;-67
2021/01/20 03:23:54;;;;;;;1.38;0.70;;;1.50;99.90;;;;;;8391228;28;20032;-68
2021/01/20 03:27:55;;;;;;;4.47;1.05;;;0.90;99.90;;;;;;8392650;28;20029;-68
2021/01/20 03:31:55;;;;;;;1.48;0.80;;;0.40;99.90;;;;;;8392222;28;20111;-68
2021/01/20 03:35:56;;;;;;;0.93;0.50;;;0.40;99.90;;;;;;8392531;28;20085;-68
2021/01/20 03:39:56;;;;;;;0.50;0.50;;;0.40;99.90;;;;;;8392249;28;20035;-67
2021/01/20 03:43:57;;;;;;;0.80;0.50;;;0.50;99.90;;;;;;8391976;28;20059;-68
2021/01/20 03:47:57;;;;;;;1.15;0.68;;;0.40;99.90;;;;;;8392408;28;20032;-67
2021/01/20 03:51:58;;;;;;;1.42;0.60;;;0.20;99.90;;;;;;8390653;28;20021;-68
2021/01/20 03:55:58;;;;;;;0.55;0.55;;;0.00;99.90;;;;;;8392025;28;20051;-68
2021/01/20 03:59:59;;;;;;;1.52;0.70;;;-0.40;99.90;;;;;;8390834;28;20032;-68
2021/01/20 04:03:59;;;;;;;2.05;0.73;;;-0.90;99.90;;;;;;8390684;28;20085;-68
2021/01/20 04:08:00;;;;;;;0.80;0.60;;;-1.20;99.90;;;;;;8390598;28;20113;-68
2021/01/20 04:12:00;;;;;;;1.08;0.60;;;-1.30;99.90;;;;;;8391731;28;20031;-68
2021/01/20 04:16:02;;;;;;;1.42;0.80;;;-1.40;99.90;;;;;;8391911;28;20016;-68
2021/01/20 04:20:04;;;;;;;3.28;2.08;;;-1.60;99.90;;;;;;8391672;28;20043;-68
2021/01/20 04:24:05;;;;;;;7.95;3.55;;;-1.40;99.90;;;;;;8397868;28;20025;-68
2021/01/20 04:28:06;;;;;;;22.73;11.90;;;-1.20;99.90;;;;;;8396459;28;20059;-68
2021/01/20 04:32:09;;;;;;;13.98;7.10;;;-1.20;99.90;;;;;;8395721;28;20025;-67
2021/01/20 04:36:09;;;;;;;6.20;3.17;;;-1.30;99.90;;;;;;8397198;28;20037;-67
2021/01/20 04:40:10;;;;;;;3.60;2.10;;;-1.30;99.90;;;;;;8397020;28;20028;-68
2021/01/20 04:44:11;;;;;;;1.23;0.63;;;-1.50;99.90;;;;;;8397139;22;20045;-66
2021/01/20 04:48:12;;;;;;;2.75;1.90;;;-1.70;99.90;;;;;;8371464;28;20031;-68
2021/01/20 04:52:17;;;;;;;3.97;1.80;;;-1.40;99.90;;;;;;8362633;28;20512;-67
2021/01/20 04:56:18;;;;;;;1.88;0.88;;;-1.20;99.90;;;;;;8330527;28;20013;-67
2021/01/20 05:00:19;;;;;;;0.75;0.63;;;-1.20;99.90;;;;;;8327505;28;20098;-67
2021/01/20 05:04:20;;;;;;;0.60;0.45;;;-0.90;99.90;;;;;;8330217;28;20026;-67
2021/01/20 05:08:22;;;;;;;1.58;0.80;;;-0.70;99.90;;;;;;8330034;28;20057;-67
2021/01/20 05:12:34;;;;;;;1.58;0.88;;;-0.50;99.90;;;;;;8328591;28;20053;-66
2021/01/20 05:16:35;;;;;;;0.93;0.60;;;-0.70;99.90;;;;;;8309772;28;20058;-68
2021/01/20 05:20:37;;;;;;;0.95;0.65;;;-0.60;99.90;;;;;;8279145;28;20026;-68
2021/01/20 05:24:38;;;;;;;1.08;0.73;;;-0.70;99.90;;;;;;8279747;28;20030;-67
2021/01/20 05:28:38;;;;;;;1.02;0.73;;;-0.80;99.90;;;;;;8307406;28;20041;-67
2021/01/20 05:32:39;;;;;;;1.48;0.80;;;-0.80;99.90;;;;;;8313488;28;20025;-67
2021/01/20 05:36:40;;;;;;;1.25;0.88;;;-0.90;99.90;;;;;;8321123;28;20022;-68
2021/01/20 05:40:40;;;;;;;1.42;0.95;;;-0.80;99.90;;;;;;8329406;28;20106;-68
2021/01/20 05:44:59;;;;;;;0.95;0.70;;;-0.70;99.90;;;;;;8325596;28;20029;-69
2021/01/20 05:49:00;;;;;;;1.50;0.80;;;-0.70;99.90;;;;;;8308984;28;20127;-70
2021/01/20 05:53:11;;;;;;;1.15;0.70;;;-0.80;99.90;;;;;;8327342;28;20080;-70
2021/01/20 05:57:16;;;;;;;1.23;0.68;;;-0.90;99.90;;;;;;8328404;28;20028;-73
2021/01/20 06:01:18;;;;;;;1.90;1.00;;;-0.90;99.90;;;;;;8310260;28;20504;-73
2021/01/20 06:05:19;;;;;;;0.98;0.60;;;-0.70;99.90;;;;;;8328925;28;20377;-73
2021/01/20 06:09:21;;;;;;;1.67;0.80;;;-0.60;99.90;;;;;;8328684;28;20022;-73
2021/01/20 06:13:22;;;;;;;2.90;0.70;;;-0.70;99.90;;;;;;8310463;28;20084;-73
2021/01/20 06:17:36;;;;;;;2.30;0.93;;;-0.80;99.90;;;;;;8328537;28;20549;-73
2021/01/20 06:21:37;;;;;;;2.17;0.82;;;-0.80;99.90;;;;;;8310336;28;20029;-73
2021/01/20 06:25:39;;;;;;;1.52;0.80;;;-0.90;99.90;;;;;;8328346;28;20025;-73
2021/01/20 06:29:50;;;;;;;1.20;0.90;;;-0.80;99.90;;;;;;8327918;28;20065;-73
2021/01/20 06:33:51;;;;;;;3.08;1.20;;;-0.90;99.90;;;;;;8309985;28;20117;-73
2021/01/20 06:37:52;;;;;;;3.80;1.05;;;-0.70;99.90;;;;;;8307136;28;20022;-73
2021/01/20 06:41:53;;;;;;;1.45;0.77;;;-0.60;99.90;;;;;;8313109;28;20401;-73
2021/01/20 06:46:17;;;;;;;0.70;0.70;;;-0.60;99.90;;;;;;8308132;28;20034;-73
2021/01/20 06:50:17;;;;;;;1.30;0.70;;;-0.50;99.90;;;;;;8307969;28;20496;-73
2021/01/20 06:54:18;;;;;;;3.22;0.93;;;-0.60;99.90;;;;;;8306224;28;20040;-71
2021/01/20 06:58:24;;;;;;;2.75;0.95;;;-0.30;99.90;;;;;;8292043;28;20025;-70
2021/01/20 07:02:24;;;;;;;1.98;1.00;;;0.00;99.90;;;;;;8324648;28;20033;-70
2021/01/20 07:06:34;;;;;;;1.83;1.08;;;0.00;99.90;;;;;;8310312;28;20477;-70
2021/01/20 07:11:00;;;;;;;1.40;0.90;;;-0.10;99.90;;;;;;8314944;28;20043;-70
2021/01/20 07:15:04;;;;;;;1.20;0.80;;;-0.20;99.90;;;;;;8299303;28;20495;-70
2021/01/20 07:19:05;;;;;;;2.05;0.88;;;-0.40;99.90;;;;;;8314531;28;20029;-70
2021/01/20 07:23:06;;;;;;;1.35;0.70;;;-0.50;99.90;;;;;;8311648;28;20524;-70
2021/01/20 07:27:08;;;;;;;0.80;0.73;;;-0.40;99.90;;;;;;8307172;28;20037;-70
2021/01/20 07:31:12;;;;;;;1.35;0.85;;;-0.40;99.90;;;;;;8309122;28;20018;-70
2021/01/20 07:35:23;;;;;;;1.85;0.95;;;-0.40;99.90;;;;;;8308878;28;20017;-71
2021/01/20 07:39:25;;;;;;;3.45;1.25;;;-0.30;99.90;;;;;;8309095;28;20028;-70
2021/01/20 07:43:25;;;;;;;1.17;0.82;;;-0.20;99.90;;;;;;8307487;28;20048;-71
2021/01/20 07:47:26;;;;;;;6.43;2.13;;;-0.10;99.90;;;;;;8305719;28;20147;-71
2021/01/20 07:51:26;;;;;;;0.85;0.80;;;-0.10;99.90;;;;;;8315871;28;20037;-70
2021/01/20 07:55:27;;;;;;;1.40;0.93;;;0.20;99.90;;;;;;8326891;28;20105;-70
2021/01/20 07:59:28;;;;;;;4.22;1.63;;;0.40;99.90;;;;;;8331431;28;20034;-72
2021/01/20 08:03:36;;;;;;;3.67;2.53;;;0.70;99.90;;;;;;8312695;28;20042;-72
2021/01/20 08:07:36;;;;;;;5.65;3.22;;;0.90;99.90;;;;;;8329077;28;20025;-72
2021/01/20 08:11:37;;;;;;;5.30;3.33;;;1.00;99.90;;;;;;8330842;28;20029;-73
2021/01/20 08:15:40;;;;;;;5.50;3.40;;;1.10;99.90;;;;;;8312710;28;20025;-72
2021/01/20 08:19:41;;;;;;;5.80;2.85;;;1.50;99.90;;;;;;8331108;28;20582;-70
2021/01/20 08:23:49;;;;;;;2.60;1.05;;;1.70;99.90;;;;;;8330965;28;20078;-70
2021/01/20 08:27:50;;;;;;;2.47;1.42;;;2.00;99.90;;;;;;8330418;28;20563;-72
2021/01/20 08:32:10;;;;;;;3.17;1.20;;;2.10;99.90;;;;;;8329608;28;20021;-72
2021/01/20 08:36:20;;;;;;;1.63;1.20;;;2.30;99.90;;;;;;8325300;28;20063;-72
2021/01/20 08:40:22;;;;;;;;;;;2.40;99.90;;;;;;8311430;28;20022;-72
2021/01/20 08:44:22;;;;;;;4.50;2.50;;;2.70;99.90;;;;;;8326237;28;20296;-72
2021/01/20 08:48:28;;;;;;;3.53;1.58;;;2.90;99.90;;;;;;8329955;28;20030;-72
2021/01/20 08:52:42;;;;;;;2.70;1.73;;;3.00;99.90;;;;;;8324140;28;20075;-72
2021/01/20 08:56:43;;;;;;;9.73;1.40;;;3.30;99.90;;;;;;8329790;28;20036;-72
2021/01/20 09:00:45;;;;;;;3.42;1.27;;;3.50;99.90;;;;;;8329382;28;20101;-72
2021/01/20 09:04:47;;;;;;;1.30;0.95;;;3.70;99.90;;;;;;8325865;28;20225;-72
2021/01/20 09:08:47;;;;;;;1.70;1.10;;;4.10;99.90;;;;;;8311600;28;20427;-73
2021/01/20 09:12:48;;;;;;;1.73;1.20;;;4.30;99.90;;;;;;8329326;28;20084;-72
2021/01/20 09:16:48;;;;;;;2.13;1.20;;;4.60;99.90;;;;;;8311314;28;20025;-73
2021/01/20 09:20:49;;;;;;;3.38;1.92;;;4.90;99.90;;;;;;8328916;28;20116;-72
2021/01/20 09:24:50;;;;;;;1.98;1.50;;;5.10;99.90;;;;;;8328665;28;20102;-72
2021/01/20 09:28:50;;;;;;;2.63;1.23;;;5.30;99.90;;;;;;8327823;28;20037;-72
2021/01/20 09:32:51;;;;;;;2.88;1.20;;;5.40;99.90;;;;;;8327024;28;20104;-72
2021/01/20 09:36:52;;;;;;;2.50;1.17;;;5.70;99.90;;;;;;8320990;28;20025;-72
2021/01/20 09:40:52;;;;;;;3.78;1.70;;;5.70;99.90;;;;;;8328334;28;20547;-72
2021/01/20 09:44:53;;;;;;;2.97;1.30;;;5.80;99.90;;;;;;8328477;28;20032;-70
2021/01/20 09:48:53;;;;;;;3.75;1.30;;;6.00;99.90;;;;;;8328808;28;20031;-72
2021/01/20 09:52:54;;;;;;;1.98;1.25;;;6.30;99.90;;;;;;8327986;28;20021;-73
2021/01/20 09:56:54;;;;;;;2.83;1.38;;;6.60;99.90;;;;;;8328015;28;20064;-72
2021/01/20 10:00:55;;;;;;;2.10;1.40;;;7.00;99.90;;;;;;8327590;28;20022;-72
2021/01/20 10:04:56;;;;;;;2.25;1.40;;;7.50;99.90;;;;;;8309645;28;20527;-71
2021/01/20 10:08:56;;;;;;;2.92;1.50;;;8.20;99.90;;;;;;8326841;28;20033;-72
2021/01/20 10:12:57;;;;;;;2.97;1.48;;;8.40;99.90;;;;;;8327350;28;20511;-72
2021/01/20 10:16:58;;;;;;;1.58;1.00;;;8.20;99.90;;;;;;8309387;28;20018;-72
2021/01/20 10:20:58;;;;;;;1.60;1.10;;;8.40;99.90;;;;;;8323301;28;20156;-72
2021/01/20 10:24:59;;;;;;;1.42;1.13;;;8.80;99.90;;;;;;8310358;28;20029;-74
2021/01/20 10:28:59;;;;;;;3.97;2.22;;;9.00;99.90;;;;;;8308413;28;20032;-73
2021/01/20 10:33:00;;;;;;;2.42;1.20;;;9.10;99.90;;;;;;8308977;28;20075;-73
2021/01/20 10:37:01;;;;;;;2.00;1.27;;;9.20;99.90;;;;;;8305293;28;20438;-73
2021/01/20 10:41:02;;;;;;;1.75;1.17;;;;;;;;;;8325979;28;20040;-73
2021/01/20 10:45:03;;;;;;;1.95;1.17;;;9.90;98.70;;;;;;8375704;23;20083;-73
2021/01/20 10:49:04;;;;;;;2.13;1.10;;;10.50;97.50;;;;;;8368676;28;20036;-72
2021/01/20 10:53:04;;;;;;;2.05;1.23;;;10.70;95.60;;;;;;8372637;28;20442;-72
2021/01/20 10:57:05;;;;;;;10.27;4.97;;;10.60;95.20;;;;;;8408475;28;20169;-73
2021/01/20 11:01:06;;;;;;;2.90;1.70;;;10.80;95.50;;;;;;8388192;28;20052;-73
2021/01/20 11:05:07;;;;;;;3.90;1.60;;;11.30;93.80;;;;;;8372958;28;20028;-73
2021/01/20 11:09:08;;;;;;;4.40;1.50;;;11.70;92.90;;;;;;8393013;28;20075;-72
2021/01/20 11:13:08;;;;;;;7.63;3.60;;;11.60;92.20;;;;;;8370465;28;20071;-72
2021/01/20 11:17:09;;;;;;;2.75;1.83;;;11.40;92.10;;;;;;8367545;28;20025;-73
2021/01/20 11:21:14;;;;;;;4.32;2.05;;;11.10;92.40;;;;;;8374711;28;20016;-72
2021/01/20 11:25:15;;;;;;;9.07;3.38;;;10.80;93.60;;;;;;8357435;28;20036;-72
2021/01/20 11:29:15;;;;;;;7.32;3.17;;;10.90;93.20;;;;;;8359595;28;20029;-72
2021/01/20 11:33:16;;;;;;;6.35;2.67;;;11.50;91.60;;;;;;8366053;28;20029;-72
2021/01/20 11:37:17;;;;;;;7.95;3.03;;;12.00;90.90;;;;;;8365037;28;20033;-72
2021/01/20 11:41:17;;;;;;;12.65;4.68;;;12.80;86.70;;;;;;8364935;28;20032;-72
2021/01/20 11:45:18;;;;;;;4.18;2.22;;;12.40;86.70;;;;;;8363916;28;20418;-72
2021/01/20 11:49:18;;;;;;;10.88;4.47;;;12.10;85.60;;;;;;8363893;28;20522;-72
2021/01/20 11:53:19;;;;;;;10.15;5.20;;;12.20;86.50;;;;;;8365280;28;20035;-71
2021/01/20 11:57:19;;;;;;;10.88;6.22;;;12.70;83.50;;;;;;8380572;28;20025;-73
2021/01/20 12:01:22;;;;;;;6.22;3.70;;;13.90;77.70;;;;;;8363151;28;20021;-73
2021/01/20 12:05:22;;;;;;;95.55;87.53;;;15.10;74.30;;;;;;8362643;28;20411;-72
2021/01/20 12:09:24;;;;;;;227.80;215.38;;;16.00;69.40;;;;;;8365194;28;20029;-71
2021/01/20 12:13:24;;;;;;;85.68;32.45;;;16.50;66.20;;;;;;8363288;28;20658;-71
2021/01/20 12:17:25;;;;;;;7.80;4.10;;;15.50;66.10;;;;;;8363096;28;20024;-70
2021/01/20 12:21:26;;;;;;;6.20;3.15;;;14.60;69.30;;;;;;8364274;28;20543;-69
2021/01/20 12:25:26;;;;;;;3.35;1.70;;;13.80;70.40;;;;;;8364735;28;20025;-70
2021/01/20 12:29:27;;;;;;;1.48;1.30;;;13.30;74.80;;;;;;8363315;28;20037;-71
2021/01/20 12:33:28;;;;;;;6.05;1.67;;;13.10;75.10;;;;;;8364825;28;20100;-70
2021/01/20 12:37:28;;;;;;;3.42;1.90;;;12.90;76.40;;;;;;8363837;28;20110;-69
2021/01/20 12:41:29;;;;;;;3.55;2.40;;;12.80;77.70;;;;;;8378367;28;20083;-70
2021/01/20 12:45:29;;;;;;;4.72;2.63;;;12.40;75.50;;;;;;8363036;28;20039;-70
2021/01/20 12:49:30;;;;;;;3.50;2.10;;;12.10;77.20;;;;;;8362200;28;20071;-70
2021/01/20 12:53:30;;;;;;;2.30;1.65;;;11.60;78.90;;;;;;8361624;28;20045;-70
2021/01/20 12:57:31;;;;;;;2.97;1.52;;;11.30;79.20;;;;;;8362898;28;20025;-70
2021/01/20 13:01:31;;;;;;;3.03;1.65;;;10.60;80.90;;;;;;8377618;28;20061;-69
2021/01/20 13:05:32;;;;;;;1.80;1.65;;;9.90;85.20;;;;;;8363492;28;20087;-70
2021/01/20 13:09:32;;;;;;;1.92;1.55;;;9.40;85.40;;;;;;8362949;28;20377;-70
2021/01/20 13:13:33;;;;;;;4.93;1.70;;;9.40;86.00;;;;;;8377851;28;20021;-69
2021/01/20 13:17:33;;;;;;;2.80;1.95;;;9.40;87.30;;;;;;8363200;28;20098;-70
2021/01/20 13:21:34;;;;;;;2.45;1.67;;;10.10;83.80;;;;;;8376625;28;20074;-70
2021/01/20 13:25:34;;;;;;;7.20;2.67;;;12.40;79.30;;;;;;8362613;28;20053;-70
2021/01/20 13:29:35;;;;;;;2.42;1.60;;;15.50;70.40;;;;;;8378117;28;20048;-69
2021/01/20 13:33:36;;;;;;;7.60;5.00;;;16.40;62.70;;;;;;8378359;28;20029;-70
2021/01/20 13:37:37;;;;;;;21.13;13.80;;;15.40;62.90;;;;;;8377985;28;20376;-69
2021/01/20 13:41:37;;;;;;;3.05;2.08;;;14.30;65.70;;;;;;8362126;28;20468;-70
2021/01/20 13:45:38;;;;;;;2.80;1.50;;;13.10;69.30;;;;;;8377469;28;20033;-69
2021/01/20 13:49:39;;;;;;;12.77;8.43;;;13.10;72.60;;;;;;8361261;28;20430;-70
2021/01/20 13:53:39;;;;;;;6.15;3.55;;;14.90;68.20;;;;;;8360231;28;20029;-69
2021/01/20 13:57:40;;;;;;;3.40;1.80;;;16.80;63.50;;;;;;8359548;28;20553;-69
2021/01/20 14:01:40;;;;;;;3.30;1.85;;;17.60;57.90;;;;;;8358815;28;20037;-68
2021/01/20 14:05:43;;;;;;;3.83;2.00;;;16.50;58.10;;;;;;8359309;28;20191;-69
2021/01/20 14:09:43;;;;;;;2.13;1.70;;;14.50;62.60;;;;;;8359295;28;20104;-68
2021/01/20 14:13:44;;;;;;;3.72;2.03;;;12.90;68.40;;;;;;8359213;28;20032;-69
2021/01/20 14:17:44;;;;;;;4.93;2.08;;;11.20;74.90;;;;;;8359180;28;20024;-69
2021/01/20 14:21:45;;;;;;;3.40;2.20;;;10.60;77.80;;;;;;8359930;28;20031;-73
2021/01/20 14:25:47;;;;;;;4.00;2.47;;;10.10;79.80;;;;;;8375028;28;20396;-75
2021/01/20 14:29:48;;;;;;;3.85;2.58;;;9.70;81.90;;;;;;8358567;28;20506;-71
2021/01/20 14:33:48;;;;;;;5.97;3.30;;;9.40;83.10;;;;;;8357585;28;20021;-68
2021/01/20 14:37:49;;;;;;;6.95;3.70;;;8.90;85.10;;;;;;8358211;28;20025;-68
2021/01/20 14:41:50;;;;;;;4.88;3.00;;;8.30;87.10;;;;;;8358234;28;20048;-67
2021/01/20 14:45:50;;;;;;;6.25;3.53;;;8.00;88.90;;;;;;8358472;28;20033;-67
2021/01/20 14:49:51;;;;;;;6.22;4.00;;;7.60;90.30;;;;;;8356264;28;20025;-68
2021/01/20 14:53:52;;;;;;;6.82;2.90;;;7.40;90.40;;;;;;8357465;28;20029;-68
2021/01/20 14:57:52;;;;;;;7.15;3.22;;;7.20;90.90;;;;;;8357881;28;20053;-68
2021/01/20 15:01:53;;;;;;;14.40;9.45;;;6.90;92.20;;;;;;8354300;28;20036;-67
2021/01/20 15:05:53;;;;;;;10.80;7.90;;;6.70;94.30;;;;;;8357714;28;20115;-66
2021/01/20 15:09:54;;;;;;;14.80;10.75;;;6.40;96.30;;;;;;8358734;28;20036;-67
2021/01/20 15:13:55;;;;;;;9.80;6.00;;;6.20;99.90;;;;;;8358080;28;20528;-66
2021/01/20 15:17:55;;;;;;;6.10;4.15;;;6.20;99.90;;;;;;8357038;28;20087;-67
2021/01/20 15:21:56;;;;;;;8.82;3.17;;;6.00;99.90;;;;;;8358724;28;20029;-65
2021/01/20 15:25:57;;;;;;;4.07;2.67;;;5.60;99.90;;;;;;8358548;28;20028;-69
2021/01/20 15:29:57;;;;;;;4.07;2.47;;;5.20;99.90;;;;;;8351624;28;20025;-67
2021/01/20 15:33:58;;;;;;;4.10;2.42;;;5.20;99.90;;;;;;8357935;28;20029;-72
2021/01/20 15:37:58;;;;;;;114.40;46.13;;;4.70;99.90;;;;;;8357928;28;20029;-69
2021/01/20 15:41:59;;;;;;;6.25;4.32;;;4.20;99.90;;;;;;8357910;28;20037;-71
2021/01/20 15:46:00;;;;;;;12.77;7.38;;;4.30;99.90;;;;;;8357975;28;20033;-73
2021/01/20 15:50:00;;;;;;;7.70;5.60;;;4.00;99.90;;;;;;8357489;28;20064;-70
2021/01/20 15:54:01;;;;;;;12.85;7.47;;;3.80;99.90;;;;;;8357653;28;20056;-70
2021/01/20 15:58:01;;;;;;;16.88;9.07;;;3.80;99.90;;;;;;8357235;28;20025;-70
2021/01/20 16:02:02;;;;;;;23.33;14.90;;;3.30;99.90;;;;;;8353941;28;20044;-67
2021/01/20 16:06:03;;;;;;;17.70;11.15;;;3.00;99.90;;;;;;8354190;28;20488;-70
2021/01/20 16:10:05;;;;;;;20.95;13.52;;;2.90;99.90;;;;;;8357291;28;20140;-70
2021/01/20 16:14:07;;;;;;;28.80;17.33;;;2.70;99.90;;;;;;8355220;28;20060;-69
2021/01/20 16:18:07;;;;;;;31.33;19.23;;;2.50;99.90;;;;;;8359050;28;20479;-69
2021/01/20 16:22:08;;;;;;;8.63;5.13;;;2.40;99.90;;;;;;8358904;28;20029;-69
2021/01/20 16:26:09;;;;;;;11.65;6.78;;;2.70;99.90;;;;;;8360350;28;20029;-69
2021/01/20 16:30:15;;;;;;;8.00;5.05;;;2.40;99.90;;;;;;8362322;28;20021;-69
2021/01/20 16:34:15;;;;;;;9.55;5.40;;;2.20;99.90;;;;;;8362668;28;20078;-69
2021/01/20 16:38:16;;;;;;;13.68;7.70;;;1.80;99.90;;;;;;8363321;28;20426;-69
2021/01/20 16:42:16;;;;;;;21.45;11.82;;;1.80;99.90;;;;;;8361954;28;20037;-68
2021/01/20 16:46:17;;;;;;;18.90;11.15;;;2.00;99.90;;;;;;8361780;28;20137;-69
2021/01/20 16:50:18;;;;;;;14.40;7.68;;;1.80;99.90;;;;;;8360890;28;20036;-69
2021/01/20 16:54:18;;;;;;;10.48;6.55;;;1.70;99.90;;;;;;8361847;28;20017;-69
2021/01/20 16:58:19;;;;;;;10.68;6.22;;;1.70;99.90;;;;;;8362808;28;20021;-68
2021/01/20 17:02:19;;;;;;;10.27;6.15;;;1.80;99.90;;;;;;8359525;28;20033;-69
2021/01/20 17:06:20;;;;;;;10.30;6.30;;;1.60;99.90;;;;;;8360771;28;20029;-69
2021/01/20 17:10:23;;;;;;;11.27;6.72;;;1.60;99.90;;;;;;8362063;28;20036;-68
2021/01/20 17:14:26;;;;;;;12.32;7.18;;;1.30;99.90;;;;;;8361575;28;20421;-69
2021/01/20 17:18:27;;;;;;;20.48;10.38;;;1.00;99.90;;;;;;8361651;28;20025;-69
2021/01/20 17:22:27;;;;;;;18.63;11.40;;;1.10;99.90;;;;;;8360621;28;20114;-69
2021/01/20 17:26:28;;;;;;;16.13;9.95;;;0.80;99.90;;;;;;8361736;28;20446;-69
2021/01/20 17:30:28;;;;;;;18.35;10.45;;;0.70;99.90;;;;;;8376258;28;20037;-69
2021/01/20 17:34:29;;;;;;;14.07;7.68;;;0.60;99.90;;;;;;8368151;28;20028;-69
2021/01/20 17:38:30;;;;;;;14.15;8.60;;;;;;;;;;8359716;28;20055;-68
2021/01/20 17:42:30;;;;;;;21.35;10.05;;;0.20;99.90;;;;;;8361015;28;20020;-68
2021/01/20 17:46:31;;;;;;;10.85;6.03;;;0.20;99.90;;;;;;8361345;28;20033;-68
2021/01/20 17:50:31;;;;;;;12.00;6.18;;;-0.10;99.90;;;;;;8359695;28;20506;-68
2021/01/20 17:54:32;;;;;;;36.78;17.33;;;-0.20;99.90;;;;;;8358583;28;20113;-67
2021/01/20 17:58:33;;;;;;;51.47;22.27;;;-0.20;99.90;;;;;;8355963;28;20016;-68
2021/01/20 18:02:37;;;;;;;25.08;10.93;;;-0.50;99.90;;;;;;8357871;28;20452;-69
2021/01/20 18:06:38;;;;;;;19.20;11.15;;;-0.60;99.90;;;;;;8357020;28;20031;-69
2021/01/20 18:10:38;;;;;;;24.98;13.93;;;-0.60;99.90;;;;;;8354216;28;20032;-69
2021/01/20 18:14:39;;;;;;;20.15;11.13;;;-0.60;99.90;;;;;;8356346;28;20770;-68
2021/01/20 18:18:39;;;;;;;18.80;9.07;;;-0.60;99.90;;;;;;8356708;28;20606;-69
2021/01/20 18:22:40;;;;;;;24.27;10.60;;;-0.80;99.90;;;;;;8354717;28;20387;-68
2021/01/20 18:26:40;;;;;;;30.92;13.95;;;-0.90;99.90;;;;;;8356661;28;20021;-68
2021/01/20 18:30:41;;;;;;;23.42;12.15;;;-0.90;99.90;;;;;;8355271;28;20033;-69
2021/01/20 18:34:42;;;;;;;22.42;12.35;;;-1.10;99.90;;;;;;8355332;28;20028;-69
2021/01/20 18:43:41;;;;;;;32.00;14.80;;;-1.30;99.90;;;;;;8352397;28;20067;-68
2021/01/20 18:47:41;;;;;;;34.47;18.30;;;-1.40;99.90;;;;;;8358143;28;20605;-69
2021/01/20 18:51:43;;;;;;;19.10;10.80;;;-1.40;99.90;;;;;;8357883;28;20059;-68
2021/01/20 18:55:44;;;;;;;17.67;9.93;;;-1.30;99.90;;;;;;8364925;28;20055;-69
2021/01/20 18:59:44;;;;;;;27.70;13.40;;;-1.40;99.90;;;;;;8353431;28;20029;-68
2021/01/20 19:03:45;;;;;;;25.58;12.68;;;-1.30;99.90;;;;;;8353798;28;20104;-69
2021/01/20 19:07:45;;;;;;;18.05;9.50;;;-1.30;99.90;;;;;;8356152;28;20057;-69
2021/01/20 19:11:46;;;;;;;16.27;9.05;;;-0.90;99.90;;;;;;8354888;28;20102;-68
2021/01/20 19:15:46;;;;;;;24.17;11.25;;;-1.00;99.90;;;;;;8357751;28;20067;-68
2021/01/20 19:19:47;;;;;;;26.73;12.52;;;-1.40;99.90;;;;;;8363960;28;20398;-68
2021/01/20 19:23:48;;;;;;;25.33;13.77;;;-1.50;99.90;;;;;;8372370;28;20095;-68
2021/01/20 19:27:49;;;;;;;23.02;11.00;;;-1.80;99.90;;;;;;8357657;28;20029;-68
2021/01/20 19:31:49;;;;;;;20.85;9.38;;;-1.70;99.90;;;;;;8352262;28;20083;-68
2021/01/20 19:35:50;;;;;;;30.13;11.45;;;-1.90;99.90;;;;;;8352736;28;20033;-68
2021/01/20 19:39:50;;;;;;;32.10;14.20;;;-2.10;99.90;;;;;;8351946;28;20163;-68
2021/01/20 19:43:51;;;;;;;22.92;12.43;;;-1.90;99.90;;;;;;8351537;28;20045;-68
2021/01/20 19:47:52;;;;;;;22.60;10.98;;;-1.90;99.90;;;;;;8351021;28;20059;-69
2021/01/20 19:51:52;;;;;;;18.75;9.70;;;-2.00;99.90;;;;;;8353766;28;20020;-69
2021/01/20 19:55:53;;;;;;;16.92;7.63;;;-2.10;99.90;;;;;;8359396;28;20043;-69
2021/01/20 19:59:53;;;;;;;16.25;7.95;;;-2.10;99.90;;;;;;8356826;28;20063;-69
2021/01/20 20:03:54;;;;;;;8.50;5.30;;;;;;;;;;8358621;28;20508;-68
2021/01/20 20:07:55;;;;;;;7.45;4.60;;;-2.00;99.90;;;;;;8370166;28;20055;-69
2021/01/20 20:11:56;;;;;;;8.90;5.15;;;-2.00;99.90;;;;;;8361849;28;20111;-68
2021/01/20 20:15:56;;;;;;;12.50;7.65;;;-2.00;99.90;;;;;;8359743;28;20451;-68
2021/01/20 20:19:58;;;;;;;15.02;7.32;;;-2.10;99.90;;;;;;8356791;28;20119;-68
2021/01/20 20:23:58;;;;;;;13.25;7.63;;;-2.10;99.90;;;;;;8359736;28;20118;-67
2021/01/20 20:27:59;;;;;;;12.18;7.07;;;-2.10;99.90;;;;;;8356507;28;20066;-68
2021/01/20 20:31:59;;;;;;;21.45;11.32;;;-2.00;99.90;;;;;;8359829;28;20091;-68
2021/01/20 20:36:00;;;;;;;18.92;10.13;;;-1.90;99.90;;;;;;8354408;28;20403;-68
2021/01/20 20:40:01;;;;;;;15.75;9.10;;;-1.90;99.90;;;;;;8357768;28;20057;-68
2021/01/20 20:44:02;;;;;;;16.35;7.75;;;-1.90;99.90;;;;;;8357655;28;20550;-69
2021/01/20 20:48:03;;;;;;;12.05;6.95;;;-1.80;99.90;;;;;;8358921;28;20690;-68
2021/01/20 20:52:04;;;;;;;11.75;7.63;;;-1.50;99.90;;;;;;8358179;28;20075;-68
2021/01/20 20:56:04;;;;;;;13.40;8.25;;;-1.40;99.90;;;;;;8358786;28;20029;-68
2021/01/20 21:00:07;;;;;;;9.68;5.32;;;-1.40;99.90;;;;;;8358185;28;20071;-68
2021/01/20 21:04:07;;;;;;;14.25;7.78;;;-1.40;99.90;;;;;;8355144;28;20025;-69